Time;durP1;ratioP1;P1;durP2;ratioP2;P2;SDS_P1;SDS_P2;PMS_P1;PMS_P2;Temp;Humidity;BMP_temperature;BMP_pressure;BME280_temperature;BME280_humidity;BME280_pressure;Samples;Min_cycle;Max_cycle;Signal;HPM_P1;HPM_P2
2022/08/07 00:01:09;;;;;;;3.60;3.50;;;;;;;;;;5927665;24;20402;-91
2022/08/07 00:03:35;;;;;;;3.53;3.30;;;;;;;;;;5929133;24;20893;-91
2022/08/07 00:06:02;;;;;;;3.60;3.30;;;;;;;;;;5928174;24;20500;-91
2022/08/07 00:08:28;;;;;;;3.70;3.60;;;;;;;;;;5929453;24;20470;-92
2022/08/07 00:10:54;;;;;;;3.30;3.30;;;;;;;;;;5927746;24;20394;-91
2022/08/07 00:13:21;;;;;;;3.33;3.23;;;;;;;;;;5929806;24;20383;-90
2022/08/07 00:15:47;;;;;;;6.07;5.47;;;;;;;;;;5927061;24;20398;-91
2022/08/07 00:18:17;;;;;;;4.10;3.83;;;;;;;;;;5929433;24;20430;-90
2022/08/07 00:20:43;;;;;;;4.07;3.87;;;;;;;;;;5926699;24;20453;-90
2022/08/07 00:23:10;;;;;;;3.37;3.33;;;;;;;;;;5924604;24;20398;-91
2022/08/07 00:25:36;;;;;;;9.07;3.67;;;;;;;;;;5927393;24;20425;-91
2022/08/07 00:28:02;;;;;;;3.60;3.40;;;;;;;;;;5928623;24;20419;-91
2022/08/07 00:30:28;;;;;;;4.17;4.07;;;;;;;;;;5951315;24;20387;-90
2022/08/07 00:32:57;;;;;;;3.97;3.67;;;;;;;;;;5929328;24;20833;-89
2022/08/07 00:35:23;;;;;;;3.47;3.30;;;;;;;;;;5927101;24;20427;-90
2022/08/07 00:37:49;;;;;;;3.07;3.07;;;;;;;;;;5953152;24;20356;-91
2022/08/07 00:40:15;;;;;;;3.53;3.33;;;;;;;;;;5928530;24;20433;-91
2022/08/07 00:42:41;;;;;;;3.47;3.37;;;;;;;;;;5926793;24;20459;-91
2022/08/07 00:45:09;;;;;;;3.30;3.30;;;;;;;;;;5928318;24;20434;-91
2022/08/07 00:47:35;;;;;;;3.13;3.13;;;;;;;;;;5926492;24;20410;-91
2022/08/07 00:50:01;;;;;;;3.87;3.77;;;;;;;;;;5927640;24;20486;-91
2022/08/07 00:52:27;;;;;;;3.47;3.37;;;;;;;;;;5925337;24;20398;-92
2022/08/07 00:54:53;;;;;;;3.27;3.17;;;;;;;;;;5927706;24;20402;-91
2022/08/07 00:57:20;;;;;;;4.10;3.90;;;;;;;;;;5926538;24;20956;-91
2022/08/07 00:59:46;;;;;;;2.57;2.57;;;;;;;;;;5928503;24;20703;-90
2022/08/07 01:02:13;;;;;;;3.33;3.33;;;;;;;;;;5926796;24;20393;-89
2022/08/07 01:04:39;;;;;;;3.13;3.07;;;;;;;;;;5927386;24;20828;-90
2022/08/07 01:07:05;;;;;;;3.17;3.17;;;;;;;;;;5952225;24;20374;-91
2022/08/07 01:09:32;;;;;;;5.40;2.90;;;;;;;;;;5928279;24;20481;-92
2022/08/07 01:11:58;;;;;;;3.00;3.00;;;;;;;;;;5926975;24;20876;-90
2022/08/07 01:14:24;;;;;;;3.40;3.40;;;;;;;;;;5953188;24;20415;-90
2022/08/07 01:16:51;;;;;;;3.60;3.40;;;;;;;;;;5950981;24;20427;-90
2022/08/07 01:19:18;;;;;;;3.83;3.70;;;;;;;;;;5913586;24;20418;-91
2022/08/07 01:21:44;;;;;;;3.10;3.00;;;;;;;;;;5930507;24;20409;-90
2022/08/07 01:24:10;;;;;;;3.63;3.53;;;;;;;;;;5907362;24;20429;-91
2022/08/07 01:26:36;;;;;;;2.80;2.80;;;;;;;;;;5913271;24;20423;-92
2022/08/07 01:29:03;;;;;;;3.50;3.40;;;;;;;;;;5915159;24;20437;-92
2022/08/07 01:31:32;;;;;;;3.37;3.27;;;;;;;;;;5902615;24;20881;-92
2022/08/07 01:33:59;;;;;;;3.73;3.37;;;;;;;;;;5900343;24;20391;-91
2022/08/07 01:36:25;;;;;;;3.10;2.97;;;;;;;;;;5898257;24;20391;-91
2022/08/07 01:38:51;;;;;;;3.30;3.30;;;;;;;;;;5899926;24;20460;-92
2022/08/07 01:41:19;;;;;;;3.37;3.27;;;;;;;;;;5898502;24;20395;-91
2022/08/07 01:43:45;;;;;;;3.10;3.00;;;;;;;;;;5899692;24;20404;-87
2022/08/07 01:46:11;;;;;;;3.33;3.33;;;;;;;;;;5898302;24;20486;-89
2022/08/07 01:48:37;;;;;;;3.43;3.27;;;;;;;;;;5925040;24;20379;-90
2022/08/07 01:51:07;;;;;;;2.70;2.70;;;;;;;;;;5899299;24;20434;-90
2022/08/07 01:53:35;;;;;;;2.87;2.87;;;;;;;;;;5901919;24;20395;-91
2022/08/07 01:56:10;;;;;;;2.93;2.90;;;;;;;;;;5899214;24;20407;-91
2022/08/07 01:58:38;;;;;;;3.50;3.20;;;;;;;;;;5900968;24;20383;-89
2022/08/07 02:01:09;;;;;;;3.40;3.20;;;;;;;;;;5899394;24;20394;-90
2022/08/07 02:03:38;;;;;;;2.77;2.73;;;;;;;;;;5902359;24;20415;-90
2022/08/07 02:06:06;;;;;;;3.10;3.10;;;;;;;;;;5900369;24;20430;-89
2022/08/07 02:08:36;;;;;;;2.73;2.73;;;;;;;;;;5902966;24;20380;-89
2022/08/07 02:11:02;;;;;;;3.13;2.93;;;;;;;;;;5901369;24;20395;-89
2022/08/07 02:13:30;;;;;;;3.23;3.23;;;;;;;;;;5902603;24;20392;-91
2022/08/07 02:15:58;;;;;;;4.80;3.70;;;;;;;;;;5900447;24;20395;-90
2022/08/07 02:18:25;;;;;;;3.30;3.20;;;;;;;;;;5928762;24;20430;-91
2022/08/07 02:20:52;;;;;;;4.90;3.57;;;;;;;;;;5927168;24;20418;-90
2022/08/07 02:23:18;;;;;;;3.43;3.13;;;;;;;;;;5925770;24;20434;-91
2022/08/07 02:25:45;;;;;;;3.07;3.07;;;;;;;;;;5926895;24;20434;-91
2022/08/07 02:28:12;;;;;;;3.70;3.50;;;;;;;;;;5954800;24;20407;-89
2022/08/07 02:30:38;;;;;;;3.27;3.27;;;;;;;;;;5930848;24;20402;-89
2022/08/07 02:33:05;;;;;;;3.13;3.03;;;;;;;;;;5927265;24;20401;-89
2022/08/07 02:35:32;;;;;;;3.67;2.83;;;;;;;;;;5929916;24;20398;-91
2022/08/07 02:38:00;;;;;;;3.70;3.70;;;;;;;;;;5927794;24;20960;-90
2022/08/07 02:40:26;;;;;;;3.40;3.30;;;;;;;;;;5928984;24;20398;-90
2022/08/07 02:42:53;;;;;;;8.03;3.87;;;;;;;;;;5927193;24;20398;-91
2022/08/07 02:45:20;;;;;;;3.57;3.47;;;;;;;;;;5929840;24;20462;-91
2022/08/07 02:47:47;;;;;;;3.30;3.10;;;;;;;;;;5958638;24;20438;-87
2022/08/07 02:50:13;;;;;;;3.03;2.93;;;;;;;;;;5950259;24;20399;-86
2022/08/07 02:52:44;;;;;;;3.70;3.53;;;;;;;;;;5948535;24;20402;-86
2022/08/07 02:55:13;;;;;;;3.60;3.40;;;;;;;;;;5950679;24;20791;-86
2022/08/07 02:57:39;;;;;;;3.23;3.13;;;;;;;;;;5948857;24;20962;-87
2022/08/07 03:00:06;;;;;;;3.07;2.93;;;;;;;;;;5950231;24;20923;-87
2022/08/07 03:02:33;;;;;;;3.10;3.00;;;;;;;;;;5950067;24;20409;-87
2022/08/07 03:04:59;;;;;;;2.77;2.77;;;;;;;;;;5950102;24;20434;-87
2022/08/07 03:07:26;;;;;;;3.23;3.20;;;;;;;;;;5924886;24;20410;-87
2022/08/07 03:09:52;;;;;;;3.00;3.00;;;;;;;;;;5927355;24;20462;-86
2022/08/07 03:12:18;;;;;;;3.40;3.30;;;;;;;;;;5925533;24;20390;-87
2022/08/07 03:14:44;;;;;;;4.07;3.80;;;;;;;;;;5927037;24;20413;-87
2022/08/07 03:17:10;;;;;;;3.27;3.27;;;;;;;;;;5924987;24;20940;-87
2022/08/07 03:19:37;;;;;;;3.83;3.63;;;;;;;;;;5926739;24;20422;-87
2022/08/07 03:22:04;;;;;;;3.67;3.57;;;;;;;;;;5924538;24;20426;-87
2022/08/07 03:24:31;;;;;;;2.90;2.90;;;;;;;;;;5949018;24;20449;-86
2022/08/07 03:26:59;;;;;;;3.80;3.63;;;;;;;;;;5925892;24;20410;-87
2022/08/07 03:29:33;;;;;;;3.20;3.10;;;;;;;;;;5954900;24;20459;-87
2022/08/07 03:32:01;;;;;;;4.17;4.03;;;;;;;;;;5925480;24;20407;-87
2022/08/07 03:34:27;;;;;;;3.27;3.20;;;;;;;;;;5951347;24;20443;-87
2022/08/07 03:36:53;;;;;;;3.10;3.00;;;;;;;;;;5949935;24;20391;-86
2022/08/07 03:39:20;;;;;;;3.40;3.30;;;;;;;;;;5927319;24;20374;-87
2022/08/07 03:41:46;;;;;;;3.97;3.87;;;;;;;;;;5923806;24;20435;-87
2022/08/07 03:44:12;;;;;;;3.70;3.50;;;;;;;;;;5950612;24;20422;-87
2022/08/07 03:46:40;;;;;;;3.90;3.90;;;;;;;;;;5924010;24;20409;-87
2022/08/07 03:49:07;;;;;;;3.80;3.60;;;;;;;;;;5926601;24;20409;-86
2022/08/07 03:51:33;;;;;;;3.37;3.30;;;;;;;;;;5924786;24;20743;-86
2022/08/07 03:53:59;;;;;;;4.00;3.70;;;;;;;;;;5928309;24;20395;-88
2022/08/07 03:56:26;;;;;;;3.77;3.70;;;;;;;;;;5952734;24;20379;-86
2022/08/07 03:58:52;;;;;;;3.33;3.23;;;;;;;;;;5926755;24;20413;-87
2022/08/07 04:01:19;;;;;;;3.87;3.77;;;;;;;;;;5924997;24;20399;-87
2022/08/07 04:03:45;;;;;;;3.13;3.03;;;;;;;;;;5927312;24;20421;-87
2022/08/07 04:06:11;;;;;;;3.30;3.10;;;;;;;;;;5925166;24;20483;-87
2022/08/07 04:08:40;;;;;;;3.17;3.17;;;;;;;;;;5926318;24;20395;-86
2022/08/07 04:11:07;;;;;;;3.83;3.70;;;;;;;;;;5924453;24;20386;-87
2022/08/07 04:13:33;;;;;;;3.90;3.80;;;;;;;;;;5926152;24;20383;-87
2022/08/07 04:15:59;;;;;;;3.70;3.60;;;;;;;;;;5951776;24;20386;-87
2022/08/07 04:18:25;;;;;;;4.07;3.97;;;;;;;;;;5925711;24;20756;-87
2022/08/07 04:20:51;;;;;;;3.43;3.23;;;;;;;;;;5927315;24;20960;-87
2022/08/07 04:23:18;;;;;;;4.07;3.87;;;;;;;;;;5944967;24;20394;-87
2022/08/07 04:25:44;;;;;;;3.40;3.30;;;;;;;;;;5927227;24;20434;-88
2022/08/07 04:28:11;;;;;;;3.27;3.27;;;;;;;;;;5927902;24;20441;-86
2022/08/07 04:30:38;;;;;;;3.57;3.47;;;;;;;;;;5926826;24;20770;-87
2022/08/07 04:33:08;;;;;;;5.00;4.70;;;;;;;;;;5925008;24;20485;-87
2022/08/07 04:35:35;;;;;;;3.70;3.50;;;;;;;;;;5926921;24;20402;-87
2022/08/07 04:38:11;;;;;;;4.67;4.30;;;;;;;;;;5925859;24;20708;-87
2022/08/07 04:40:41;;;;;;;4.00;3.70;;;;;;;;;;5927187;24;20982;-87
2022/08/07 04:43:07;;;;;;;3.67;3.67;;;;;;;;;;5949239;24;20481;-88
2022/08/07 04:45:39;;;;;;;3.43;3.33;;;;;;;;;;5926304;24;20920;-88
2022/08/07 04:48:08;;;;;;;4.00;3.63;;;;;;;;;;5924949;24;20383;-87
2022/08/07 04:50:37;;;;;;;3.97;3.87;;;;;;;;;;5927895;24;20398;-88
2022/08/07 04:53:22;;;;;;;3.43;3.33;;;;;;;;;;5924556;24;20423;-88
2022/08/07 04:55:55;;;;;;;3.47;3.30;;;;;;;;;;5926338;24;20600;-87
2022/08/07 04:58:21;;;;;;;4.27;3.97;;;;;;;;;;5924613;24;20417;-87
2022/08/07 05:00:47;;;;;;;3.53;3.43;;;;;;;;;;5926723;24;20477;-88
2022/08/07 05:03:31;;;;;;;3.20;3.10;;;;;;;;;;5924589;24;20439;-87
2022/08/07 05:06:05;;;;;;;3.07;3.07;;;;;;;;;;5926173;24;20827;-86
2022/08/07 05:08:33;;;;;;;3.20;3.00;;;;;;;;;;5924780;24;20477;-87
2022/08/07 05:11:05;;;;;;;3.20;3.07;;;;;;;;;;5926576;24;20395;-86
2022/08/07 05:13:35;;;;;;;3.37;3.27;;;;;;;;;;5925480;24;20451;-86
2022/08/07 05:16:03;;;;;;;2.73;2.53;;;;;;;;;;5928251;24;20852;-87
2022/08/07 05:18:30;;;;;;;3.10;3.00;;;;;;;;;;5924625;24;20395;-86
2022/08/07 05:20:57;;;;;;;3.10;3.07;;;;;;;;;;5926980;24;20394;-86
2022/08/07 05:23:26;;;;;;;3.70;3.50;;;;;;;;;;5920239;24;20391;-87
2022/08/07 05:25:53;;;;;;;3.17;2.97;;;;;;;;;;5926252;24;20485;-87
2022/08/07 05:28:19;;;;;;;3.27;3.03;;;;;;;;;;5924504;24;20394;-88
2022/08/07 05:30:46;;;;;;;2.97;2.87;;;;;;;;;;5926418;24;20515;-87
2022/08/07 05:33:13;;;;;;;3.20;3.00;;;;;;;;;;5924204;24;20393;-87
2022/08/07 05:35:39;;;;;;;2.73;2.70;;;;;;;;;;5926003;24;20970;-88
2022/08/07 05:38:06;;;;;;;3.43;2.90;;;;;;;;;;5925234;24;20402;-87
2022/08/07 05:40:33;;;;;;;2.20;2.20;;;;;;;;;;5928466;24;20405;-85
2022/08/07 05:43:00;;;;;;;2.53;2.43;;;;;;;;;;5934380;24;20473;-86
2022/08/07 05:45:27;;;;;;;2.67;2.67;;;;;;;;;;5949184;24;20492;-86
2022/08/07 05:47:53;;;;;;;3.00;3.00;;;;;;;;;;5933024;24;20453;-85
2022/08/07 05:50:20;;;;;;;3.17;3.07;;;;;;;;;;5928949;24;20410;-87
2022/08/07 05:52:46;;;;;;;2.40;2.40;;;;;;;;;;5924116;24;20409;-86
2022/08/07 05:55:12;;;;;;;2.47;2.47;;;;;;;;;;5926414;24;20430;-86
2022/08/07 05:57:39;;;;;;;2.73;2.63;;;;;;;;;;5923699;24;20409;-86
2022/08/07 06:00:07;;;;;;;2.73;2.73;;;;;;;;;;5926176;24;20747;-87
2022/08/07 06:02:34;;;;;;;2.80;2.80;;;;;;;;;;5924810;24;20436;-86
2022/08/07 06:05:06;;;;;;;2.53;2.53;;;;;;;;;;5927766;24;21014;-87
2022/08/07 06:07:33;;;;;;;4.17;2.50;;;;;;;;;;5949706;24;20398;-86
2022/08/07 06:09:59;;;;;;;2.50;2.50;;;;;;;;;;5926018;24;20534;-87
2022/08/07 06:12:25;;;;;;;2.77;2.70;;;;;;;;;;5923707;24;20781;-86
2022/08/07 06:14:51;;;;;;;2.60;2.60;;;;;;;;;;5950124;24;20403;-88
2022/08/07 06:17:18;;;;;;;2.57;2.57;;;;;;;;;;5924328;24;20458;-87
2022/08/07 06:19:45;;;;;;;2.73;2.73;;;;;;;;;;5925939;24;20453;-86
2022/08/07 06:22:11;;;;;;;2.60;2.50;;;;;;;;;;5923073;24;20417;-87
2022/08/07 06:24:36;;;;;;;2.37;2.27;;;;;;;;;;5916229;24;20492;-86
2022/08/07 06:27:03;;;;;;;2.20;2.10;;;;;;;;;;5919877;24;20413;-86
2022/08/07 06:29:29;;;;;;;2.17;2.07;;;;;;;;;;5947285;24;20430;-86
2022/08/07 06:31:55;;;;;;;2.20;2.20;;;;;;;;;;5944680;24;20720;-87
2022/08/07 06:34:25;;;;;;;1.97;1.97;;;;;;;;;;5946815;24;20793;-88
2022/08/07 06:36:51;;;;;;;4.70;2.67;;;;;;;;;;5921260;24;20473;-87
2022/08/07 06:39:17;;;;;;;2.10;2.00;;;;;;;;;;5922415;24;20414;-87
2022/08/07 06:41:45;;;;;;;2.20;2.20;;;;;;;;;;5921411;24;20408;-86
2022/08/07 06:44:12;;;;;;;1.90;1.80;;;;;;;;;;5922645;24;20443;-88
2022/08/07 06:46:39;;;;;;;1.90;1.83;;;;;;;;;;5919945;24;20386;-88
2022/08/07 06:49:05;;;;;;;2.00;2.00;;;;;;;;;;5923832;24;20374;-87
2022/08/07 06:51:33;;;;;;;1.70;1.60;;;;;;;;;;5925428;24;20403;-87
2022/08/07 06:54:03;;;;;;;1.90;1.80;;;;;;;;;;5924409;24;20514;-87
2022/08/07 06:56:42;;;;;;;1.97;1.87;;;;;;;;;;5926698;24;20398;-87
2022/08/07 06:59:10;;;;;;;2.47;2.47;;;;;;;;;;5928286;24;20394;-85
2022/08/07 07:01:36;;;;;;;2.00;2.00;;;;;;;;;;5927326;24;20382;-87
2022/08/07 07:04:04;;;;;;;2.63;1.80;;;;;;;;;;5927495;24;21059;-88
2022/08/07 07:06:31;;;;;;;1.57;1.57;;;;;;;;;;5953179;24;20418;-88
2022/08/07 07:09:15;;;;;;;1.70;1.70;;;;;;;;;;5925418;24;20406;-88
2022/08/07 07:11:42;;;;;;;1.90;1.77;;;;;;;;;;5949449;24;20859;-88
2022/08/07 07:14:09;;;;;;;2.63;1.50;;;;;;;;;;5951826;24;20390;-88
2022/08/07 07:16:37;;;;;;;1.60;1.60;;;;;;;;;;5926889;24;20410;-88
2022/08/07 07:19:06;;;;;;;1.20;1.20;;;;;;;;;;5924491;24;20411;-87
2022/08/07 07:21:34;;;;;;;1.57;1.47;;;;;;;;;;5926107;24;20398;-88
2022/08/07 07:24:01;;;;;;;1.60;1.60;;;;;;;;;;5947975;24;20383;-87
2022/08/07 07:26:29;;;;;;;1.23;1.23;;;;;;;;;;5924209;24;20831;-87
2022/08/07 07:28:57;;;;;;;1.53;1.50;;;;;;;;;;5923776;24;20422;-88
2022/08/07 07:31:27;;;;;;;1.63;1.53;;;;;;;;;;5924925;24;20390;-87
2022/08/07 07:33:55;;;;;;;1.57;1.40;;;;;;;;;;5947722;24;20378;-85
2022/08/07 07:36:22;;;;;;;1.50;1.50;;;;;;;;;;5925525;24;20486;-87
2022/08/07 07:38:49;;;;;;;1.40;1.40;;;;;;;;;;5924869;24;20771;-85
2022/08/07 07:41:16;;;;;;;1.50;1.50;;;;;;;;;;5926153;24;20849;-87
2022/08/07 07:43:44;;;;;;;1.60;1.60;;;;;;;;;;5925155;24;20403;-86
2022/08/07 07:46:10;;;;;;;1.30;1.30;;;;;;;;;;5951801;24;20418;-86
2022/08/07 07:48:36;;;;;;;1.60;1.50;;;;;;;;;;5925498;24;20395;-87
2022/08/07 07:51:04;;;;;;;1.70;1.70;;;;;;;;;;5926308;24;20410;-85
2022/08/07 07:53:30;;;;;;;1.63;1.63;;;;;;;;;;5922892;24;20410;-86
2022/08/07 07:55:59;;;;;;;1.40;1.40;;;;;;;;;;5926440;24;20417;-87
2022/08/07 07:58:28;;;;;;;1.57;1.57;;;;;;;;;;5924916;24;20398;-86
2022/08/07 08:00:54;;;;;;;1.33;1.33;;;;;;;;;;5950778;24;20374;-87
2022/08/07 08:03:21;;;;;;;1.00;1.00;;;;;;;;;;5924238;24;20414;-87
2022/08/07 08:05:47;;;;;;;1.63;1.30;;;;;;;;;;5926073;24;20802;-86
2022/08/07 08:08:14;;;;;;;1.83;1.70;;;;;;;;;;5949258;24;20378;-87
2022/08/07 08:10:40;;;;;;;1.13;1.13;;;;;;;;;;5926888;24;20398;-87
2022/08/07 08:13:08;;;;;;;1.40;1.30;;;;;;;;;;5949948;24;20447;-88
2022/08/07 08:15:36;;;;;;;1.17;1.17;;;;;;;;;;5926925;24;20477;-89
2022/08/07 08:18:02;;;;;;;0.90;0.90;;;;;;;;;;5924427;24;21167;-88
2022/08/07 08:20:30;;;;;;;1.20;1.20;;;;;;;;;;5926920;24;21048;-87
2022/08/07 08:28:28;;;;;;;0.80;0.80;;;;;;;;;;5951103;24;20431;-88
2022/08/07 08:30:58;;;;;;;0.70;0.70;;;;;;;;;;5941755;24;20503;-90
2022/08/07 08:33:25;;;;;;;0.67;0.67;;;;;;;;;;5949131;24;20383;-89
2022/08/07 08:35:54;;;;;;;0.70;0.70;;;;;;;;;;5947832;24;20387;-89
2022/08/07 08:38:22;;;;;;;0.60;0.60;;;;;;;;;;5941757;24;20712;-88
2022/08/07 08:40:53;;;;;;;0.83;0.83;;;;;;;;;;5951949;24;20390;-87
2022/08/07 08:43:23;;;;;;;0.83;0.83;;;;;;;;;;5924778;24;20406;-88
2022/08/07 08:45:53;;;;;;;0.80;0.80;;;;;;;;;;5926477;24;20484;-87
2022/08/07 08:48:35;;;;;;;0.93;0.77;;;;;;;;;;5926855;24;20421;-93
2022/08/07 08:51:04;;;;;;;0.70;0.70;;;;;;;;;;5929328;24;20414;-88
2022/08/07 08:53:38;;;;;;;0.77;0.77;;;;;;;;;;5949403;24;20403;-87
2022/08/07 08:56:06;;;;;;;0.87;0.70;;;;;;;;;;5951656;24;20355;-86
2022/08/07 08:58:38;;;;;;;0.90;0.90;;;;;;;;;;5923752;24;20438;-87
2022/08/07 09:01:17;;;;;;;0.80;0.80;;;;;;;;;;5926173;24;20403;-88
2022/08/07 09:03:55;;;;;;;0.77;0.77;;;;;;;;;;5925299;24;20410;-89
2022/08/07 09:06:41;;;;;;;0.50;0.50;;;;;;;;;;5951382;24;20414;-89
2022/08/07 09:09:19;;;;;;;0.97;0.97;;;;;;;;;;5925459;24;20378;-89
2022/08/07 09:11:53;;;;;;;0.60;0.60;;;;;;;;;;5952994;24;20375;-89
2022/08/07 09:14:32;;;;;;;0.70;0.70;;;;;;;;;;5925514;24;21059;-89
2022/08/07 09:17:19;;;;;;;1.50;0.63;;;;;;;;;;5928681;24;20431;-89
2022/08/07 09:19:49;;;;;;;0.53;0.53;;;;;;;;;;5930039;24;20390;-89
2022/08/07 09:22:15;;;;;;;0.57;0.57;;;;;;;;;;5950594;24;20475;-90
2022/08/07 09:24:56;;;;;;;0.83;0.60;;;;;;;;;;5948395;24;20537;-90
2022/08/07 09:27:31;;;;;;;0.60;0.60;;;;;;;;;;5949932;24;20434;-89
2022/08/07 09:30:02;;;;;;;0.57;0.57;;;;;;;;;;5927941;24;20379;-89
2022/08/07 09:32:36;;;;;;;0.77;0.60;;;;;;;;;;5925444;24;20391;-90
2022/08/07 09:35:20;;;;;;;0.83;0.83;;;;;;;;;;5952674;24;20439;-90
2022/08/07 09:37:53;;;;;;;0.60;0.60;;;;;;;;;;5925723;24;20398;-90
2022/08/07 09:40:26;;;;;;;0.50;0.50;;;;;;;;;;5928628;24;20395;-89
2022/08/07 09:42:52;;;;;;;0.87;0.50;;;;;;;;;;5927349;24;20466;-88
2022/08/07 09:45:21;;;;;;;0.60;0.60;;;;;;;;;;5949915;24;20482;-88
2022/08/07 09:48:02;;;;;;;0.90;0.90;;;;;;;;;;5923330;24;20446;-88
2022/08/07 09:50:47;;;;;;;0.77;0.77;;;;;;;;;;5947193;24;21043;-89
2022/08/07 09:53:14;;;;;;;0.70;0.70;;;;;;;;;;5921407;24;20806;-88
2022/08/07 09:55:43;;;;;;;1.03;0.73;;;;;;;;;;5923419;24;20406;-88
2022/08/07 09:58:37;;;;;;;4.40;2.30;;;;;;;;;;5921570;24;20410;-87
2022/08/07 10:01:14;;;;;;;0.90;0.90;;;;;;;;;;5926138;24;20430;-88
2022/08/07 10:03:55;;;;;;;0.60;0.60;;;;;;;;;;5946774;24;20466;-87
2022/08/07 10:06:34;;;;;;;1.20;0.60;;;;;;;;;;5924613;24;20926;-87
2022/08/07 10:09:07;;;;;;;0.70;0.70;;;;;;;;;;5946780;24;20389;-87
2022/08/07 10:11:52;;;;;;;0.70;0.70;;;;;;;;;;5923756;24;20398;-87
2022/08/07 10:14:31;;;;;;;0.50;0.50;;;;;;;;;;5922644;24;20461;-87
2022/08/07 10:17:32;;;;;;;0.97;0.80;;;;;;;;;;5948645;24;20370;-88
2022/08/07 10:19:58;;;;;;;0.60;0.60;;;;;;;;;;5813596;24;20460;-87
2022/08/07 10:22:33;;;;;;;0.93;0.93;;;;;;;;;;5899745;24;20478;-88
2022/08/07 10:25:15;;;;;;;0.40;0.40;;;;;;;;;;5919857;24;20441;-86
2022/08/07 10:27:48;;;;;;;0.57;0.57;;;;;;;;;;5924058;24;20553;-87
2022/08/07 10:30:21;;;;;;;2.90;1.50;;;;;;;;;;5926896;24;20876;-86
2022/08/07 10:33:00;;;;;;;0.87;0.70;;;;;;;;;;5924010;24;20437;-88
2022/08/07 10:35:55;;;;;;;0.80;0.80;;;;;;;;;;5926137;24;20378;-88
2022/08/07 10:38:27;;;;;;;0.93;0.57;;;;;;;;;;5923573;24;20402;-88
2022/08/07 10:41:02;;;;;;;0.90;0.90;;;;;;;;;;5924931;24;20414;-87
2022/08/07 10:43:35;;;;;;;2.13;1.50;;;;;;;;;;5947733;24;20386;-88
2022/08/07 10:46:06;;;;;;;0.50;0.50;;;;;;;;;;5924111;24;20438;-87
2022/08/07 10:48:38;;;;;;;1.10;1.10;;;;;;;;;;5922824;24;20406;-88
2022/08/07 10:51:14;;;;;;;1.30;1.23;;;;;;;;;;5922774;24;20405;-88
2022/08/07 10:53:47;;;;;;;0.73;0.73;;;;;;;;;;5921593;24;20891;-87
2022/08/07 10:56:26;;;;;;;0.93;0.93;;;;;;;;;;5927561;24;20394;-87
2022/08/07 10:58:57;;;;;;;0.67;0.60;;;;;;;;;;5927936;24;20737;-88
2022/08/07 11:01:37;;;;;;;0.90;0.83;;;;;;;;;;5932975;24;20463;-89
2022/08/07 11:04:15;;;;;;;0.70;0.70;;;;;;;;;;5927793;24;20417;-88
2022/08/07 11:06:50;;;;;;;0.80;0.80;;;;;;;;;;5932458;24;20454;-87
2022/08/07 11:09:21;;;;;;;0.53;0.53;;;;;;;;;;5927953;24;20419;-87
2022/08/07 11:11:56;;;;;;;0.73;0.73;;;;;;;;;;5931481;24;20463;-88
2022/08/07 11:14:25;;;;;;;2.13;0.60;;;;;;;;;;5926896;24;20444;-88
2022/08/07 11:16:54;;;;;;;2.20;1.53;;;;;;;;;;5928821;24;20395;-88
2022/08/07 11:19:28;;;;;;;2.50;2.50;;;;;;;;;;5928283;24;20394;-87
2022/08/07 11:22:07;;;;;;;0.70;0.70;;;;;;;;;;5931967;24;20419;-92
2022/08/07 11:24:40;;;;;;;1.10;1.07;;;;;;;;;;5929240;24;20486;-91
2022/08/07 11:27:32;;;;;;;1.57;1.57;;;;;;;;;;5956111;24;20849;-91
2022/08/07 11:30:02;;;;;;;1.00;1.00;;;;;;;;;;5890097;24;20435;-93
2022/08/07 11:32:38;;;;;;;0.83;0.83;;;;;;;;;;5936021;24;20390;-91
2022/08/07 11:40:32;;;;;;;1.30;1.30;;;;;;;;;;5969361;24;20445;-89
2022/08/07 11:43:40;;;;;;;1.00;1.00;;;;;;;;;;5943012;24;20415;-90
2022/08/07 11:46:09;;;;;;;0.60;0.60;;;;;;;;;;5887701;24;20448;-90
2022/08/07 11:49:03;;;;;;;0.60;0.60;;;;;;;;;;5891783;24;20414;-89
2022/08/07 11:51:49;;;;;;;0.70;0.50;;;;;;;;;;5888384;24;20467;-91
2022/08/07 11:54:28;;;;;;;0.80;0.80;;;;;;;;;;5925547;24;20406;-90
2022/08/07 11:56:59;;;;;;;0.60;0.60;;;;;;;;;;5934365;24;20445;-89
2022/08/07 11:59:58;;;;;;;1.50;1.50;;;;;;;;;;5955935;24;20387;-92
2022/08/07 12:02:24;;;;;;;2.23;0.87;;;;;;;;;;5952995;24;20437;-90
2022/08/07 12:05:12;;;;;;;0.80;0.80;;;;;;;;;;5948068;24;20410;-89
2022/08/07 12:08:05;;;;;;;1.43;0.90;;;;;;;;;;5944941;24;20407;-92
2022/08/07 12:10:37;;;;;;;0.70;0.70;;;;;;;;;;5910031;24;20426;-90
2022/08/07 12:13:13;;;;;;;2.00;0.90;;;;;;;;;;5939444;24;20435;-91
2022/08/07 12:15:42;;;;;;;1.10;1.10;;;;;;;;;;5939314;24;20518;-92
2022/08/07 12:18:26;;;;;;;1.00;1.00;;;;;;;;;;5940450;24;20418;-91
2022/08/07 12:21:04;;;;;;;1.43;0.60;;;;;;;;;;5947513;24;20411;-90
2022/08/07 12:23:49;;;;;;;0.70;0.70;;;;;;;;;;5946260;24;20394;-90
2022/08/07 12:26:22;;;;;;;3.10;3.00;;;;;;;;;;5962592;24;20397;-92
2022/08/07 12:28:50;;;;;;;0.83;0.83;;;;;;;;;;5943041;24;20391;-89
2022/08/07 12:31:23;;;;;;;1.47;0.80;;;;;;;;;;5939460;24;20417;-93
2022/08/07 12:33:51;;;;;;;1.03;1.03;;;;;;;;;;5940249;24;20508;-91
2022/08/07 12:36:26;;;;;;;0.63;0.63;;;;;;;;;;5963664;24;20414;-90
2022/08/07 12:38:55;;;;;;;0.80;0.80;;;;;;;;;;5946967;24;20541;-91
2022/08/07 12:41:33;;;;;;;;;;;;;;;;;;;;;
2022/08/07 12:44:08;;;;;;;1.03;0.70;;;;;;;;;;5970289;23;20522;-91
2022/08/07 12:46:57;;;;;;;0.73;0.73;;;;;;;;;;5976747;23;20425;-92
2022/08/07 12:49:44;;;;;;;1.03;0.90;;;;;;;;;;5979531;24;20413;-90
2022/08/07 12:52:15;;;;;;;0.93;0.80;;;;;;;;;;5977105;24;20397;-92
2022/08/07 12:54:48;;;;;;;0.63;0.63;;;;;;;;;;5978282;24;20489;-91
2022/08/07 12:57:17;;;;;;;0.80;0.80;;;;;;;;;;5975602;23;20512;-92
2022/08/07 12:59:46;;;;;;;0.60;0.60;;;;;;;;;;5969683;23;20437;-93
2022/08/07 13:02:20;;;;;;;2.10;0.90;;;;;;;;;;5979511;23;20417;-92
2022/08/07 13:10:22;;;;;;;1.00;1.00;;;;;;;;;;5973400;24;20483;-91
2022/08/07 13:12:58;;;;;;;2.00;2.00;;;;;;;;;;5946971;24;20410;-91
2022/08/07 13:21:26;;;;;;;1.33;1.33;;;;;;;;;;5972254;23;20445;-92
2022/08/07 13:24:29;;;;;;;0.70;0.70;;;;;;;;;;5972975;24;20418;-92
2022/08/07 13:27:07;;;;;;;1.13;1.13;;;;;;;;;;5977115;24;20388;-91
2022/08/07 13:36:19;;;;;;;0.93;0.90;;;;;;;;;;5975818;24;20417;-91
2022/08/07 13:39:14;;;;;;;1.17;1.17;;;;;;;;;;5954826;23;20445;-89
2022/08/07 13:42:05;;;;;;;1.30;1.30;;;;;;;;;;5853705;24;20417;-89
2022/08/07 13:55:29;;;;;;;1.60;1.50;;;;;;;;;;5988605;23;20460;-90
2022/08/07 14:09:42;;;;;;;0.70;0.70;;;;;;;;;;5958797;23;20480;-89
2022/08/07 14:22:39;;;;;;;0.90;0.90;;;;;;;;;;5944045;23;20476;-90
2022/08/07 14:30:43;;;;;;;1.27;1.27;;;;;;;;;;5961045;23;20804;-90
2022/08/07 14:33:30;;;;;;;1.40;1.40;;;;;;;;;;5937246;24;20406;-90
2022/08/07 14:42:01;;;;;;;1.20;1.20;;;;;;;;;;5963035;24;20385;-90
2022/08/07 14:44:31;;;;;;;1.00;0.90;;;;;;;;;;5934400;24;20434;-89
2022/08/07 14:47:06;;;;;;;1.20;1.20;;;;;;;;;;5942744;24;20410;-91
2022/08/07 14:49:50;;;;;;;;;;;;;;;;;;;;;
2022/08/07 14:52:50;;;;;;;;;;;;;;;;;;;;;
2022/08/07 14:58:36;;;;;;;1.47;1.47;;;;;;;;;;5972442;23;20460;-91
2022/08/07 15:01:36;;;;;;;2.97;1.17;;;;;;;;;;5995560;23;20490;-90
2022/08/07 15:04:03;;;;;;;2.40;2.30;;;;;;;;;;5969313;24;20509;-90
2022/08/07 15:06:33;;;;;;;1.00;1.00;;;;;;;;;;5975247;24;20450;-90
2022/08/07 15:09:04;;;;;;;3.23;3.00;;;;;;;;;;5973141;23;20400;-91
2022/08/07 15:11:32;;;;;;;1.20;1.20;;;;;;;;;;5971024;24;20410;-90
2022/08/07 15:14:04;;;;;;;1.50;1.40;;;;;;;;;;5970533;24;20402;-92
2022/08/07 15:16:49;;;;;;;1.43;1.40;;;;;;;;;;5965241;24;20433;-90
2022/08/07 15:19:17;;;;;;;1.27;1.27;;;;;;;;;;5965227;24;20420;-90
2022/08/07 15:21:44;;;;;;;2.93;1.27;;;;;;;;;;5963941;24;20406;-87
2022/08/07 15:24:13;;;;;;;1.57;1.57;;;;;;;;;;5955137;24;20386;-91
2022/08/07 15:26:43;;;;;;;2.40;2.30;;;;;;;;;;5961730;24;20478;-89
2022/08/07 15:29:11;;;;;;;1.63;1.63;;;;;;;;;;5960607;24;20386;-91
2022/08/07 15:31:39;;;;;;;2.30;2.20;;;;;;;;;;5987939;24;20417;-92
2022/08/07 15:34:06;;;;;;;4.10;3.80;;;;;;;;;;5959436;24;21029;-90
2022/08/07 15:36:34;;;;;;;0.97;0.90;;;;;;;;;;5960339;24;20926;-91
2022/08/07 15:39:09;;;;;;;1.70;1.60;;;;;;;;;;5958382;24;20858;-91
2022/08/07 15:41:38;;;;;;;1.70;1.60;;;;;;;;;;5960714;24;20401;-89
2022/08/07 15:44:06;;;;;;;1.30;1.30;;;;;;;;;;5960341;24;20410;-90
2022/08/07 15:46:36;;;;;;;0.93;0.93;;;;;;;;;;5960482;24;20397;-90
2022/08/07 15:49:06;;;;;;;1.20;1.20;;;;;;;;;;5961020;24;20450;-91
2022/08/07 15:51:34;;;;;;;2.00;1.70;;;;;;;;;;5961603;24;20406;-90
2022/08/07 15:54:01;;;;;;;1.30;1.30;;;;;;;;;;5964669;23;20415;-87
2022/08/07 15:56:35;;;;;;;3.73;1.50;;;;;;;;;;5963025;24;20601;-91
2022/08/07 15:59:05;;;;;;;1.43;1.10;;;;;;;;;;5969704;24;20398;-87
2022/08/07 16:01:33;;;;;;;2.13;2.03;;;;;;;;;;5948511;24;20453;-89
2022/08/07 16:04:03;;;;;;;1.70;1.70;;;;;;;;;;5935851;24;20479;-90
2022/08/07 16:06:34;;;;;;;1.30;1.30;;;;;;;;;;5934247;24;20446;-87
2022/08/07 16:09:15;;;;;;;2.33;1.97;;;;;;;;;;5930889;24;20411;-91
2022/08/07 16:12:01;;;;;;;1.80;1.80;;;;;;;;;;5940416;24;20414;-90
2022/08/07 16:14:47;;;;;;;2.60;2.60;;;;;;;;;;5934677;24;20399;-91
2022/08/07 16:17:20;;;;;;;3.60;3.30;;;;;;;;;;5938058;24;20440;-89
2022/08/07 16:20:06;;;;;;;2.83;2.73;;;;;;;;;;5944625;24;20406;-88
2022/08/07 16:22:56;;;;;;;1.90;1.90;;;;;;;;;;5937206;24;20403;-92
2022/08/07 16:25:26;;;;;;;5.73;4.07;;;;;;;;;;5934399;24;20379;-93